sensor_id;sensor_type;location;lat;lon;timestamp;P1;durP1;ratioP1;P2;durP2;ratioP2
71771;SDS011;59606;52.138;5.424;2023-02-26T00:00:05;3.00;;;0.70;;
71771;SDS011;59606;52.138;5.424;2023-02-26T00:02:38;10.23;;;0.95;;
71771;SDS011;59606;52.138;5.424;2023-02-26T00:05:05;7.53;;;0.50;;
71771;SDS011;59606;52.138;5.424;2023-02-26T00:07:32;5.67;;;1.43;;
71771;SDS011;59606;52.138;5.424;2023-02-26T00:09:59;6.32;;;0.47;;
71771;SDS011;59606;52.138;5.424;2023-02-26T00:12:28;2.63;;;0.40;;
71771;SDS011;59606;52.138;5.424;2023-02-26T00:14:55;5.45;;;0.70;;
71771;SDS011;59606;52.138;5.424;2023-02-26T00:19:49;2.00;;;0.40;;
71771;SDS011;59606;52.138;5.424;2023-02-26T00:22:16;3.97;;;0.60;;
71771;SDS011;59606;52.138;5.424;2023-02-26T00:24:42;1.25;;;0.30;;
71771;SDS011;59606;52.138;5.424;2023-02-26T00:27:12;5.57;;;1.00;;
71771;SDS011;59606;52.138;5.424;2023-02-26T00:29:38;1.63;;;0.40;;
71771;SDS011;59606;52.138;5.424;2023-02-26T00:32:06;0.77;;;0.23;;
71771;SDS011;59606;52.138;5.424;2023-02-26T00:34:33;1.13;;;0.30;;
71771;SDS011;59606;52.138;5.424;2023-02-26T00:37:16;3.67;;;0.47;;
71771;SDS011;59606;52.138;5.424;2023-02-26T00:39:49;3.55;;;0.30;;
71771;SDS011;59606;52.138;5.424;2023-02-26T00:42:22;1.48;;;0.68;;
71771;SDS011;59606;52.138;5.424;2023-02-26T00:44:49;0.87;;;0.60;;
71771;SDS011;59606;52.138;5.424;2023-02-26T00:47:23;4.40;;;0.47;;
71771;SDS011;59606;52.138;5.424;2023-02-26T00:55:06;3.70;;;0.50;;
71771;SDS011;59606;52.138;5.424;2023-02-26T00:57:33;1.30;;;0.50;;
71771;SDS011;59606;52.138;5.424;2023-02-26T00:59:59;1.35;;;0.30;;
71771;SDS011;59606;52.138;5.424;2023-02-26T01:02:25;2.60;;;0.60;;
71771;SDS011;59606;52.138;5.424;2023-02-26T01:04:52;2.05;;;0.30;;
71771;SDS011;59606;52.138;5.424;2023-02-26T01:07:20;1.90;;;0.40;;
71771;SDS011;59606;52.138;5.424;2023-02-26T01:09:49;2.43;;;0.40;;
71771;SDS011;59606;52.138;5.424;2023-02-26T01:12:16;3.88;;;0.52;;
71771;SDS011;59606;52.138;5.424;2023-02-26T01:14:43;3.67;;;0.57;;
71771;SDS011;59606;52.138;5.424;2023-02-26T01:20:00;6.40;;;0.57;;
71771;SDS011;59606;52.138;5.424;2023-02-26T01:22:32;0.97;;;0.30;;
71771;SDS011;59606;52.138;5.424;2023-02-26T01:25:06;4.20;;;0.80;;
71771;SDS011;59606;52.138;5.424;2023-02-26T01:27:35;5.70;;;0.82;;
71771;SDS011;59606;52.138;5.424;2023-02-26T01:30:03;2.47;;;0.63;;
71771;SDS011;59606;52.138;5.424;2023-02-26T01:32:45;2.50;;;0.63;;
71771;SDS011;59606;52.138;5.424;2023-02-26T01:41:02;4.57;;;0.80;;
71771;SDS011;59606;52.138;5.424;2023-02-26T01:49:31;2.93;;;0.50;;
71771;SDS011;59606;52.138;5.424;2023-02-26T01:51:58;0.60;;;0.30;;
71771;SDS011;59606;52.138;5.424;2023-02-26T01:54:28;3.70;;;0.40;;
71771;SDS011;59606;52.138;5.424;2023-02-26T01:57:02;5.22;;;0.50;;
71771;SDS011;59606;52.138;5.424;2023-02-26T01:59:31;2.70;;;0.40;;
71771;SDS011;59606;52.138;5.424;2023-02-26T02:02:01;1.37;;;0.50;;
71771;SDS011;59606;52.138;5.424;2023-02-26T02:04:30;2.85;;;0.50;;
71771;SDS011;59606;52.138;5.424;2023-02-26T02:06:57;1.98;;;0.30;;
71771;SDS011;59606;52.138;5.424;2023-02-26T02:09:24;4.45;;;0.70;;
71771;SDS011;59606;52.138;5.424;2023-02-26T02:23:10;4.78;;;0.93;;
71771;SDS011;59606;52.138;5.424;2023-02-26T02:31:16;3.50;;;0.65;;
71771;SDS011;59606;52.138;5.424;2023-02-26T02:33:55;5.65;;;0.88;;
71771;SDS011;59606;52.138;5.424;2023-02-26T02:39:02;4.35;;;0.30;;
71771;SDS011;59606;52.138;5.424;2023-02-26T02:41:36;4.47;;;0.30;;
71771;SDS011;59606;52.138;5.424;2023-02-26T02:44:09;1.38;;;0.43;;
71771;SDS011;59606;52.138;5.424;2023-02-26T02:46:41;3.50;;;0.65;;
71771;SDS011;59606;52.138;5.424;2023-02-26T02:49:15;10.55;;;0.70;;
71771;SDS011;59606;52.138;5.424;2023-02-26T02:51:49;3.95;;;0.40;;
71771;SDS011;59606;52.138;5.424;2023-02-26T02:54:23;2.03;;;0.33;;
71771;SDS011;59606;52.138;5.424;2023-02-26T02:56:57;1.20;;;0.35;;
71771;SDS011;59606;52.138;5.424;2023-02-26T02:59:41;2.47;;;0.50;;
71771;SDS011;59606;52.138;5.424;2023-02-26T03:04:48;2.28;;;0.50;;
71771;SDS011;59606;52.138;5.424;2023-02-26T03:07:14;2.13;;;0.33;;
71771;SDS011;59606;52.138;5.424;2023-02-26T03:09:41;2.58;;;0.30;;
71771;SDS011;59606;52.138;5.424;2023-02-26T03:12:08;3.75;;;0.30;;
71771;SDS011;59606;52.138;5.424;2023-02-26T03:14:34;4.65;;;0.57;;
71771;SDS011;59606;52.138;5.424;2023-02-26T03:17:16;5.22;;;0.52;;
71771;SDS011;59606;52.138;5.424;2023-02-26T03:30:53;6.22;;;0.52;;
71771;SDS011;59606;52.138;5.424;2023-02-26T03:41:46;3.70;;;0.40;;
71771;SDS011;59606;52.138;5.424;2023-02-26T03:44:26;1.27;;;0.40;;
71771;SDS011;59606;52.138;5.424;2023-02-26T03:47:02;1.50;;;0.40;;
71771;SDS011;59606;52.138;5.424;2023-02-26T03:49:45;1.83;;;0.50;;
71771;SDS011;59606;52.138;5.424;2023-02-26T03:52:18;7.00;;;0.40;;
71771;SDS011;59606;52.138;5.424;2023-02-26T03:54:54;2.40;;;0.52;;
71771;SDS011;59606;52.138;5.424;2023-02-26T03:57:26;1.13;;;0.32;;
71771;SDS011;59606;52.138;5.424;2023-02-26T03:59:52;2.23;;;0.40;;
71771;SDS011;59606;52.138;5.424;2023-02-26T04:02:21;1.67;;;0.40;;
71771;SDS011;59606;52.138;5.424;2023-02-26T04:04:55;3.13;;;0.25;;
71771;SDS011;59606;52.138;5.424;2023-02-26T04:07:28;3.60;;;0.38;;
71771;SDS011;59606;52.138;5.424;2023-02-26T04:09:55;2.78;;;0.32;;
71771;SDS011;59606;52.138;5.424;2023-02-26T04:12:22;3.20;;;0.30;;
71771;SDS011;59606;52.138;5.424;2023-02-26T04:14:50;2.10;;;0.30;;
71771;SDS011;59606;52.138;5.424;2023-02-26T04:17:16;3.33;;;0.35;;
71771;SDS011;59606;52.138;5.424;2023-02-26T04:19:44;2.65;;;0.77;;
71771;SDS011;59606;52.138;5.424;2023-02-26T04:22:10;2.40;;;0.40;;
71771;SDS011;59606;52.138;5.424;2023-02-26T04:24:37;2.77;;;0.47;;
71771;SDS011;59606;52.138;5.424;2023-02-26T04:27:04;3.45;;;0.40;;
71771;SDS011;59606;52.138;5.424;2023-02-26T04:29:30;2.38;;;0.55;;
71771;SDS011;59606;52.138;5.424;2023-02-26T04:31:57;1.30;;;0.40;;
71771;SDS011;59606;52.138;5.424;2023-02-26T04:34:24;7.93;;;0.50;;
71771;SDS011;59606;52.138;5.424;2023-02-26T04:36:51;3.47;;;0.60;;
71771;SDS011;59606;52.138;5.424;2023-02-26T04:39:17;1.92;;;0.40;;
71771;SDS011;59606;52.138;5.424;2023-02-26T04:41:44;3.60;;;0.35;;
71771;SDS011;59606;52.138;5.424;2023-02-26T04:44:11;1.67;;;0.40;;
71771;SDS011;59606;52.138;5.424;2023-02-26T04:46:37;1.33;;;0.38;;
71771;SDS011;59606;52.138;5.424;2023-02-26T04:49:04;1.27;;;0.60;;
71771;SDS011;59606;52.138;5.424;2023-02-26T04:51:30;1.25;;;0.47;;
71771;SDS011;59606;52.138;5.424;2023-02-26T04:53:57;2.35;;;0.35;;
71771;SDS011;59606;52.138;5.424;2023-02-26T04:56:24;6.32;;;0.28;;
71771;SDS011;59606;52.138;5.424;2023-02-26T04:58:51;1.20;;;0.50;;
71771;SDS011;59606;52.138;5.424;2023-02-26T05:01:18;3.00;;;0.57;;
71771;SDS011;59606;52.138;5.424;2023-02-26T05:03:44;1.50;;;0.50;;
71771;SDS011;59606;52.138;5.424;2023-02-26T05:06:11;2.00;;;0.50;;
71771;SDS011;59606;52.138;5.424;2023-02-26T05:08:37;1.38;;;0.43;;
71771;SDS011;59606;52.138;5.424;2023-02-26T05:11:08;0.93;;;0.30;;
71771;SDS011;59606;52.138;5.424;2023-02-26T05:13:35;5.23;;;0.40;;
71771;SDS011;59606;52.138;5.424;2023-02-26T05:16:03;4.68;;;0.40;;
71771;SDS011;59606;52.138;5.424;2023-02-26T05:18:29;1.40;;;0.40;;
71771;SDS011;59606;52.138;5.424;2023-02-26T05:20:56;1.30;;;0.68;;
71771;SDS011;59606;52.138;5.424;2023-02-26T05:23:22;3.90;;;0.40;;
71771;SDS011;59606;52.138;5.424;2023-02-26T05:25:49;2.00;;;0.30;;
71771;SDS011;59606;52.138;5.424;2023-02-26T05:28:16;1.02;;;0.25;;
71771;SDS011;59606;52.138;5.424;2023-02-26T05:30:42;2.45;;;0.98;;
71771;SDS011;59606;52.138;5.424;2023-02-26T05:33:09;0.57;;;0.25;;
71771;SDS011;59606;52.138;5.424;2023-02-26T05:35:35;0.77;;;0.38;;
71771;SDS011;59606;52.138;5.424;2023-02-26T05:38:02;0.70;;;0.20;;
71771;SDS011;59606;52.138;5.424;2023-02-26T05:40:28;7.32;;;0.75;;
71771;SDS011;59606;52.138;5.424;2023-02-26T05:42:55;0.82;;;0.30;;
71771;SDS011;59606;52.138;5.424;2023-02-26T05:45:21;2.58;;;0.52;;
71771;SDS011;59606;52.138;5.424;2023-02-26T05:47:48;0.30;;;0.20;;
71771;SDS011;59606;52.138;5.424;2023-02-26T05:50:14;1.20;;;0.20;;
71771;SDS011;59606;52.138;5.424;2023-02-26T05:52:41;1.15;;;0.40;;
71771;SDS011;59606;52.138;5.424;2023-02-26T05:55:08;4.45;;;0.60;;
71771;SDS011;59606;52.138;5.424;2023-02-26T05:57:34;4.78;;;1.05;;
71771;SDS011;59606;52.138;5.424;2023-02-26T06:00:01;0.95;;;0.20;;
71771;SDS011;59606;52.138;5.424;2023-02-26T06:02:29;2.40;;;0.47;;
71771;SDS011;59606;52.138;5.424;2023-02-26T06:04:55;2.05;;;0.20;;
71771;SDS011;59606;52.138;5.424;2023-02-26T06:07:22;0.82;;;0.25;;
71771;SDS011;59606;52.138;5.424;2023-02-26T06:09:49;6.13;;;0.60;;
71771;SDS011;59606;52.138;5.424;2023-02-26T06:12:16;2.67;;;0.70;;
71771;SDS011;59606;52.138;5.424;2023-02-26T06:14:42;1.03;;;0.40;;
71771;SDS011;59606;52.138;5.424;2023-02-26T06:17:09;0.77;;;0.22;;
71771;SDS011;59606;52.138;5.424;2023-02-26T06:19:35;5.18;;;0.35;;
71771;SDS011;59606;52.138;5.424;2023-02-26T06:22:02;2.85;;;0.55;;
71771;SDS011;59606;52.138;5.424;2023-02-26T06:24:28;4.50;;;0.47;;
71771;SDS011;59606;52.138;5.424;2023-02-26T06:26:55;5.43;;;0.40;;
71771;SDS011;59606;52.138;5.424;2023-02-26T06:29:21;3.05;;;0.40;;
71771;SDS011;59606;52.138;5.424;2023-02-26T06:31:48;2.22;;;0.30;;
71771;SDS011;59606;52.138;5.424;2023-02-26T06:34:15;1.85;;;0.63;;
71771;SDS011;59606;52.138;5.424;2023-02-26T06:36:42;1.23;;;0.32;;
71771;SDS011;59606;52.138;5.424;2023-02-26T06:39:09;2.67;;;0.30;;
71771;SDS011;59606;52.138;5.424;2023-02-26T06:41:37;7.68;;;0.55;;
71771;SDS011;59606;52.138;5.424;2023-02-26T06:44:04;1.70;;;0.32;;
71771;SDS011;59606;52.138;5.424;2023-02-26T06:46:30;3.22;;;0.50;;
71771;SDS011;59606;52.138;5.424;2023-02-26T06:48:57;2.75;;;0.43;;
71771;SDS011;59606;52.138;5.424;2023-02-26T06:51:23;5.70;;;0.53;;
71771;SDS011;59606;52.138;5.424;2023-02-26T06:53:49;1.35;;;0.50;;
71771;SDS011;59606;52.138;5.424;2023-02-26T06:56:16;5.95;;;0.43;;
71771;SDS011;59606;52.138;5.424;2023-02-26T06:58:42;1.60;;;0.60;;
71771;SDS011;59606;52.138;5.424;2023-02-26T07:01:09;0.80;;;0.22;;
71771;SDS011;59606;52.138;5.424;2023-02-26T07:03:35;6.33;;;0.40;;
71771;SDS011;59606;52.138;5.424;2023-02-26T07:06:02;0.47;;;0.30;;
71771;SDS011;59606;52.138;5.424;2023-02-26T07:08:49;2.40;;;0.60;;
71771;SDS011;59606;52.138;5.424;2023-02-26T07:11:16;0.95;;;0.30;;
71771;SDS011;59606;52.138;5.424;2023-02-26T07:13:42;6.28;;;0.45;;
71771;SDS011;59606;52.138;5.424;2023-02-26T07:16:08;4.30;;;0.50;;
71771;SDS011;59606;52.138;5.424;2023-02-26T07:18:35;2.13;;;0.60;;
71771;SDS011;59606;52.138;5.424;2023-02-26T07:21:03;8.32;;;0.77;;
71771;SDS011;59606;52.138;5.424;2023-02-26T07:23:30;5.22;;;0.50;;
71771;SDS011;59606;52.138;5.424;2023-02-26T07:25:56;6.78;;;0.77;;
71771;SDS011;59606;52.138;5.424;2023-02-26T07:28:23;0.93;;;0.50;;
71771;SDS011;59606;52.138;5.424;2023-02-26T07:30:52;3.42;;;0.40;;
71771;SDS011;59606;52.138;5.424;2023-02-26T07:33:20;3.10;;;0.90;;
71771;SDS011;59606;52.138;5.424;2023-02-26T07:35:47;1.77;;;0.38;;
71771;SDS011;59606;52.138;5.424;2023-02-26T07:38:13;0.47;;;0.30;;
71771;SDS011;59606;52.138;5.424;2023-02-26T07:40:40;8.40;;;1.00;;
71771;SDS011;59606;52.138;5.424;2023-02-26T07:43:06;3.30;;;0.70;;
71771;SDS011;59606;52.138;5.424;2023-02-26T07:45:33;6.38;;;0.60;;
71771;SDS011;59606;52.138;5.424;2023-02-26T07:47:59;8.13;;;0.60;;
71771;SDS011;59606;52.138;5.424;2023-02-26T07:50:26;2.55;;;0.50;;
71771;SDS011;59606;52.138;5.424;2023-02-26T07:52:52;6.20;;;0.70;;
71771;SDS011;59606;52.138;5.424;2023-02-26T07:55:19;5.82;;;0.70;;
71771;SDS011;59606;52.138;5.424;2023-02-26T07:57:46;0.47;;;0.30;;
71771;SDS011;59606;52.138;5.424;2023-02-26T08:00:13;2.28;;;0.55;;
71771;SDS011;59606;52.138;5.424;2023-02-26T08:02:41;1.02;;;0.20;;
71771;SDS011;59606;52.138;5.424;2023-02-26T08:05:07;6.30;;;0.40;;
71771;SDS011;59606;52.138;5.424;2023-02-26T08:07:34;2.03;;;0.30;;
71771;SDS011;59606;52.138;5.424;2023-02-26T08:10:00;2.53;;;0.30;;
71771;SDS011;59606;52.138;5.424;2023-02-26T08:12:27;1.63;;;0.50;;
71771;SDS011;59606;52.138;5.424;2023-02-26T08:14:54;1.52;;;0.40;;
71771;SDS011;59606;52.138;5.424;2023-02-26T08:17:20;3.07;;;0.83;;
71771;SDS011;59606;52.138;5.424;2023-02-26T08:19:46;4.32;;;0.50;;
71771;SDS011;59606;52.138;5.424;2023-02-26T08:22:13;9.90;;;0.73;;
71771;SDS011;59606;52.138;5.424;2023-02-26T08:24:39;2.08;;;0.50;;
71771;SDS011;59606;52.138;5.424;2023-02-26T08:27:06;2.95;;;0.45;;
71771;SDS011;59606;52.138;5.424;2023-02-26T08:29:33;1.77;;;0.50;;
71771;SDS011;59606;52.138;5.424;2023-02-26T08:31:59;4.80;;;0.95;;
71771;SDS011;59606;52.138;5.424;2023-02-26T08:34:26;2.03;;;0.52;;
71771;SDS011;59606;52.138;5.424;2023-02-26T08:36:52;1.77;;;0.40;;
71771;SDS011;59606;52.138;5.424;2023-02-26T08:39:19;5.18;;;0.52;;
71771;SDS011;59606;52.138;5.424;2023-02-26T08:41:45;2.23;;;0.40;;
71771;SDS011;59606;52.138;5.424;2023-02-26T08:44:12;3.05;;;0.45;;
71771;SDS011;59606;52.138;5.424;2023-02-26T08:46:38;1.95;;;0.50;;
71771;SDS011;59606;52.138;5.424;2023-02-26T08:49:05;3.10;;;0.40;;
71771;SDS011;59606;52.138;5.424;2023-02-26T08:51:32;3.35;;;0.63;;
71771;SDS011;59606;52.138;5.424;2023-02-26T08:53:58;2.03;;;0.50;;
71771;SDS011;59606;52.138;5.424;2023-02-26T08:56:25;2.05;;;0.40;;
71771;SDS011;59606;52.138;5.424;2023-02-26T08:58:52;0.98;;;0.45;;
71771;SDS011;59606;52.138;5.424;2023-02-26T09:01:18;4.90;;;0.65;;
71771;SDS011;59606;52.138;5.424;2023-02-26T09:03:44;1.17;;;0.73;;
71771;SDS011;59606;52.138;5.424;2023-02-26T09:06:11;0.73;;;0.20;;
71771;SDS011;59606;52.138;5.424;2023-02-26T09:08:37;0.80;;;0.20;;
71771;SDS011;59606;52.138;5.424;2023-02-26T09:11:04;1.13;;;0.50;;
71771;SDS011;59606;52.138;5.424;2023-02-26T09:13:31;3.35;;;0.43;;
71771;SDS011;59606;52.138;5.424;2023-02-26T09:15:57;3.40;;;0.50;;
71771;SDS011;59606;52.138;5.424;2023-02-26T09:18:24;0.90;;;0.27;;
71771;SDS011;59606;52.138;5.424;2023-02-26T09:20:50;4.35;;;0.57;;
71771;SDS011;59606;52.138;5.424;2023-02-26T09:23:17;1.52;;;0.30;;
71771;SDS011;59606;52.138;5.424;2023-02-26T09:25:44;0.95;;;0.28;;
71771;SDS011;59606;52.138;5.424;2023-02-26T09:28:10;7.63;;;0.40;;
71771;SDS011;59606;52.138;5.424;2023-02-26T09:30:37;1.67;;;0.30;;
71771;SDS011;59606;52.138;5.424;2023-02-26T09:33:03;0.30;;;0.20;;
71771;SDS011;59606;52.138;5.424;2023-02-26T09:35:30;0.85;;;0.20;;
71771;SDS011;59606;52.138;5.424;2023-02-26T09:37:57;0.63;;;0.20;;
71771;SDS011;59606;52.138;5.424;2023-02-26T09:40:27;1.80;;;0.35;;
71771;SDS011;59606;52.138;5.424;2023-02-26T09:49:03;3.97;;;0.32;;
71771;SDS011;59606;52.138;5.424;2023-02-26T09:51:38;1.77;;;0.40;;
71771;SDS011;59606;52.138;5.424;2023-02-26T09:54:09;1.98;;;0.30;;
71771;SDS011;59606;52.138;5.424;2023-02-26T09:56:42;1.63;;;0.40;;
71771;SDS011;59606;52.138;5.424;2023-02-26T09:59:09;1.77;;;0.40;;
71771;SDS011;59606;52.138;5.424;2023-02-26T10:01:38;0.50;;;0.30;;
71771;SDS011;59606;52.138;5.424;2023-02-26T10:12:20;1.00;;;0.20;;
71771;SDS011;59606;52.138;5.424;2023-02-26T10:15:01;1.17;;;0.22;;
71771;SDS011;59606;52.138;5.424;2023-02-26T10:20:21;0.40;;;0.20;;
71771;SDS011;59606;52.138;5.424;2023-02-26T10:25:48;1.33;;;0.30;;
71771;SDS011;59606;52.138;5.424;2023-02-26T10:28:26;4.93;;;0.30;;
71771;SDS011;59606;52.138;5.424;2023-02-26T10:31:28;0.22;;;0.20;;
71771;SDS011;59606;52.138;5.424;2023-02-26T10:34:06;0.47;;;0.28;;
71771;SDS011;59606;52.138;5.424;2023-02-26T10:36:46;1.83;;;0.40;;
71771;SDS011;59606;52.138;5.424;2023-02-26T10:41:51;0.47;;;0.20;;
71771;SDS011;59606;52.138;5.424;2023-02-26T10:46:56;0.98;;;0.30;;
71771;SDS011;59606;52.138;5.424;2023-02-26T10:49:50;0.37;;;0.17;;
71771;SDS011;59606;52.138;5.424;2023-02-26T10:52:20;1.10;;;0.30;;
71771;SDS011;59606;52.138;5.424;2023-02-26T10:54:57;1.48;;;0.38;;
71771;SDS011;59606;52.138;5.424;2023-02-26T10:57:30;0.95;;;0.40;;
71771;SDS011;59606;52.138;5.424;2023-02-26T10:59:59;0.93;;;0.30;;
71771;SDS011;59606;52.138;5.424;2023-02-26T11:02:37;3.10;;;0.37;;
71771;SDS011;59606;52.138;5.424;2023-02-26T11:05:07;1.60;;;0.20;;
71771;SDS011;59606;52.138;5.424;2023-02-26T11:07:44;1.02;;;0.20;;
71771;SDS011;59606;52.138;5.424;2023-02-26T11:10:19;1.73;;;0.25;;
71771;SDS011;59606;52.138;5.424;2023-02-26T11:12:48;1.30;;;0.20;;
71771;SDS011;59606;52.138;5.424;2023-02-26T11:15:19;2.90;;;0.30;;
71771;SDS011;59606;52.138;5.424;2023-02-26T11:17:48;0.77;;;0.30;;
71771;SDS011;59606;52.138;5.424;2023-02-26T11:20:38;0.65;;;0.55;;
71771;SDS011;59606;52.138;5.424;2023-02-26T11:23:12;1.95;;;0.20;;
71771;SDS011;59606;52.138;5.424;2023-02-26T11:25:42;0.77;;;0.20;;
71771;SDS011;59606;52.138;5.424;2023-02-26T11:28:20;1.43;;;0.30;;
71771;SDS011;59606;52.138;5.424;2023-02-26T11:30:54;1.75;;;0.40;;
71771;SDS011;59606;52.138;5.424;2023-02-26T11:33:23;0.63;;;0.20;;
71771;SDS011;59606;52.138;5.424;2023-02-26T11:35:58;1.73;;;0.30;;
71771;SDS011;59606;52.138;5.424;2023-02-26T11:38:26;0.60;;;0.38;;
71771;SDS011;59606;52.138;5.424;2023-02-26T11:40:55;1.43;;;0.30;;
71771;SDS011;59606;52.138;5.424;2023-02-26T11:43:24;1.40;;;0.28;;
71771;SDS011;59606;52.138;5.424;2023-02-26T11:45:58;1.75;;;0.25;;
71771;SDS011;59606;52.138;5.424;2023-02-26T11:48:30;1.25;;;0.30;;
71771;SDS011;59606;52.138;5.424;2023-02-26T11:51:04;1.10;;;0.30;;
71771;SDS011;59606;52.138;5.424;2023-02-26T11:53:34;2.83;;;0.47;;
71771;SDS011;59606;52.138;5.424;2023-02-26T11:56:11;2.65;;;0.35;;
71771;SDS011;59606;52.138;5.424;2023-02-26T11:58:44;2.88;;;0.40;;
71771;SDS011;59606;52.138;5.424;2023-02-26T12:01:12;0.93;;;0.40;;
71771;SDS011;59606;52.138;5.424;2023-02-26T12:03:43;0.73;;;0.30;;
71771;SDS011;59606;52.138;5.424;2023-02-26T12:06:16;2.60;;;0.40;;
71771;SDS011;59606;52.138;5.424;2023-02-26T12:08:46;1.63;;;0.20;;
71771;SDS011;59606;52.138;5.424;2023-02-26T12:14:41;1.27;;;0.50;;
71771;SDS011;59606;52.138;5.424;2023-02-26T12:23:04;1.20;;;0.20;;
71771;SDS011;59606;52.138;5.424;2023-02-26T12:33:48;2.83;;;0.37;;
71771;SDS011;59606;52.138;5.424;2023-02-26T12:36:45;1.25;;;0.20;;
71771;SDS011;59606;52.138;5.424;2023-02-26T12:39:41;0.80;;;0.38;;
71771;SDS011;59606;52.138;5.424;2023-02-26T12:45:07;2.80;;;0.30;;
71771;SDS011;59606;52.138;5.424;2023-02-26T12:50:19;0.80;;;0.38;;
71771;SDS011;59606;52.138;5.424;2023-02-26T12:56:00;1.05;;;0.28;;
71771;SDS011;59606;52.138;5.424;2023-02-26T13:01:40;0.37;;;0.20;;
71771;SDS011;59606;52.138;5.424;2023-02-26T13:18:55;1.65;;;0.35;;
71771;SDS011;59606;52.138;5.424;2023-02-26T13:21:31;0.57;;;0.20;;
71771;SDS011;59606;52.138;5.424;2023-02-26T13:26:40;1.88;;;0.35;;
71771;SDS011;59606;52.138;5.424;2023-02-26T13:29:18;2.53;;;0.30;;
71771;SDS011;59606;52.138;5.424;2023-02-26T13:31:51;1.98;;;0.30;;
71771;SDS011;59606;52.138;5.424;2023-02-26T13:40:00;0.30;;;0.20;;
71771;SDS011;59606;52.138;5.424;2023-02-26T13:48:40;2.38;;;0.25;;
71771;SDS011;59606;52.138;5.424;2023-02-26T13:58:43;2.85;;;0.40;;
71771;SDS011;59606;52.138;5.424;2023-02-26T14:06:38;0.70;;;0.22;;
71771;SDS011;59606;52.138;5.424;2023-02-26T14:09:28;1.87;;;0.20;;
71771;SDS011;59606;52.138;5.424;2023-02-26T14:19:43;3.53;;;0.40;;
71771;SDS011;59606;52.138;5.424;2023-02-26T14:22:35;0.40;;;0.23;;
71771;SDS011;59606;52.138;5.424;2023-02-26T14:31:06;2.88;;;0.40;;
71771;SDS011;59606;52.138;5.424;2023-02-26T14:33:57;3.13;;;0.30;;
71771;SDS011;59606;52.138;5.424;2023-02-26T14:39:07;0.85;;;0.30;;
71771;SDS011;59606;52.138;5.424;2023-02-26T14:41:42;0.95;;;0.40;;
71771;SDS011;59606;52.138;5.424;2023-02-26T14:44:14;0.93;;;0.20;;
71771;SDS011;59606;52.138;5.424;2023-02-26T14:46:43;1.83;;;0.28;;
71771;SDS011;59606;52.138;5.424;2023-02-26T14:49:13;0.47;;;0.20;;
71771;SDS011;59606;52.138;5.424;2023-02-26T14:51:51;3.67;;;0.45;;
71771;SDS011;59606;52.138;5.424;2023-02-26T15:11:46;2.80;;;0.30;;
71771;SDS011;59606;52.138;5.424;2023-02-26T15:14:38;0.73;;;0.38;;
71771;SDS011;59606;52.138;5.424;2023-02-26T15:22:30;2.40;;;0.30;;
71771;SDS011;59606;52.138;5.424;2023-02-26T15:25:01;1.88;;;0.30;;
71771;SDS011;59606;52.138;5.424;2023-02-26T15:27:31;0.20;;;0.10;;
71771;SDS011;59606;52.138;5.424;2023-02-26T15:29:59;0.57;;;0.23;;
71771;SDS011;59606;52.138;5.424;2023-02-26T15:32:27;0.95;;;0.35;;
71771;SDS011;59606;52.138;5.424;2023-02-26T15:35:00;6.65;;;0.30;;
71771;SDS011;59606;52.138;5.424;2023-02-26T15:37:32;2.05;;;0.30;;
71771;SDS011;59606;52.138;5.424;2023-02-26T15:40:04;1.77;;;0.20;;
71771;SDS011;59606;52.138;5.424;2023-02-26T15:42:36;3.23;;;0.27;;
71771;SDS011;59606;52.138;5.424;2023-02-26T15:45:05;0.40;;;0.28;;
71771;SDS011;59606;52.138;5.424;2023-02-26T15:47:40;2.42;;;0.40;;
71771;SDS011;59606;52.138;5.424;2023-02-26T15:50:07;0.63;;;0.20;;
71771;SDS011;59606;52.138;5.424;2023-02-26T15:52:39;2.22;;;0.30;;
71771;SDS011;59606;52.138;5.424;2023-02-26T15:55:06;1.43;;;0.20;;
71771;SDS011;59606;52.138;5.424;2023-02-26T15:57:33;2.15;;;0.40;;
71771;SDS011;59606;52.138;5.424;2023-02-26T16:00:06;3.15;;;0.38;;
71771;SDS011;59606;52.138;5.424;2023-02-26T16:02:38;2.22;;;0.30;;
71771;SDS011;59606;52.138;5.424;2023-02-26T16:05:06;1.27;;;0.20;;
71771;SDS011;59606;52.138;5.424;2023-02-26T16:07:33;1.90;;;0.30;;
71771;SDS011;59606;52.138;5.424;2023-02-26T16:10:03;0.82;;;0.30;;
71771;SDS011;59606;52.138;5.424;2023-02-26T16:12:34;1.67;;;0.30;;
71771;SDS011;59606;52.138;5.424;2023-02-26T16:15:05;1.40;;;0.50;;
71771;SDS011;59606;52.138;5.424;2023-02-26T16:17:38;1.58;;;0.40;;
71771;SDS011;59606;52.138;5.424;2023-02-26T16:20:14;1.77;;;0.60;;
71771;SDS011;59606;52.138;5.424;2023-02-26T16:25:22;3.50;;;0.50;;
71771;SDS011;59606;52.138;5.424;2023-02-26T16:27:57;6.90;;;2.90;;
71771;SDS011;59606;52.138;5.424;2023-02-26T16:30:29;1.55;;;0.38;;
71771;SDS011;59606;52.138;5.424;2023-02-26T16:33:01;4.07;;;0.50;;
71771;SDS011;59606;52.138;5.424;2023-02-26T16:35:36;6.25;;;1.48;;
71771;SDS011;59606;52.138;5.424;2023-02-26T16:38:10;1.73;;;0.40;;
71771;SDS011;59606;52.138;5.424;2023-02-26T16:40:43;1.65;;;0.70;;
71771;SDS011;59606;52.138;5.424;2023-02-26T16:45:49;3.80;;;0.90;;
71771;SDS011;59606;52.138;5.424;2023-02-26T16:48:21;11.55;;;2.90;;
71771;SDS011;59606;52.138;5.424;2023-02-26T16:50:54;5.70;;;1.55;;
71771;SDS011;59606;52.138;5.424;2023-02-26T16:53:30;4.07;;;0.98;;
71771;SDS011;59606;52.138;5.424;2023-02-26T16:56:00;6.65;;;1.30;;
71771;SDS011;59606;52.138;5.424;2023-02-26T16:58:28;7.10;;;2.23;;
71771;SDS011;59606;52.138;5.424;2023-02-26T17:01:02;6.47;;;2.25;;
71771;SDS011;59606;52.138;5.424;2023-02-26T17:03:33;12.15;;;3.60;;
71771;SDS011;59606;52.138;5.424;2023-02-26T17:06:02;4.65;;;1.77;;
71771;SDS011;59606;52.138;5.424;2023-02-26T17:08:34;4.40;;;0.90;;
71771;SDS011;59606;52.138;5.424;2023-02-26T17:11:18;3.00;;;0.70;;
71771;SDS011;59606;52.138;5.424;2023-02-26T17:14:02;3.80;;;0.80;;
71771;SDS011;59606;52.138;5.424;2023-02-26T17:16:38;4.93;;;1.70;;
71771;SDS011;59606;52.138;5.424;2023-02-26T17:19:05;3.08;;;1.00;;
71771;SDS011;59606;52.138;5.424;2023-02-26T17:21:31;1.55;;;0.60;;
71771;SDS011;59606;52.138;5.424;2023-02-26T17:23:58;4.33;;;0.73;;
71771;SDS011;59606;52.138;5.424;2023-02-26T17:26:25;2.35;;;0.60;;
71771;SDS011;59606;52.138;5.424;2023-02-26T17:28:51;4.45;;;0.70;;
71771;SDS011;59606;52.138;5.424;2023-02-26T17:31:18;3.83;;;0.82;;
71771;SDS011;59606;52.138;5.424;2023-02-26T17:33:45;5.65;;;0.70;;
71771;SDS011;59606;52.138;5.424;2023-02-26T17:36:13;9.70;;;1.07;;
71771;SDS011;59606;52.138;5.424;2023-02-26T17:38:43;2.88;;;1.02;;
71771;SDS011;59606;52.138;5.424;2023-02-26T17:41:16;4.05;;;0.90;;
71771;SDS011;59606;52.138;5.424;2023-02-26T17:43:43;6.38;;;1.45;;
71771;SDS011;59606;52.138;5.424;2023-02-26T17:46:10;5.57;;;1.77;;
71771;SDS011;59606;52.138;5.424;2023-02-26T17:48:37;7.80;;;1.73;;
71771;SDS011;59606;52.138;5.424;2023-02-26T17:51:04;6.53;;;1.35;;
71771;SDS011;59606;52.138;5.424;2023-02-26T17:53:32;8.27;;;1.40;;
71771;SDS011;59606;52.138;5.424;2023-02-26T17:56:09;3.33;;;1.50;;
71771;SDS011;59606;52.138;5.424;2023-02-26T17:58:39;3.38;;;1.85;;
71771;SDS011;59606;52.138;5.424;2023-02-26T18:01:06;4.63;;;1.00;;
71771;SDS011;59606;52.138;5.424;2023-02-26T18:03:33;7.88;;;1.20;;
71771;SDS011;59606;52.138;5.424;2023-02-26T18:06:00;2.35;;;0.80;;
71771;SDS011;59606;52.138;5.424;2023-02-26T18:08:29;6.25;;;1.10;;
71771;SDS011;59606;52.138;5.424;2023-02-26T18:10:57;4.03;;;0.70;;
71771;SDS011;59606;52.138;5.424;2023-02-26T18:13:25;6.77;;;0.80;;
71771;SDS011;59606;52.138;5.424;2023-02-26T18:15:53;4.55;;;1.10;;
71771;SDS011;59606;52.138;5.424;2023-02-26T18:18:23;7.13;;;1.30;;
71771;SDS011;59606;52.138;5.424;2023-02-26T18:20:51;6.57;;;1.33;;
71771;SDS011;59606;52.138;5.424;2023-02-26T18:23:18;7.88;;;1.63;;
71771;SDS011;59606;52.138;5.424;2023-02-26T18:25:46;5.03;;;1.33;;
71771;SDS011;59606;52.138;5.424;2023-02-26T18:28:17;4.65;;;1.10;;